sensor_id;sensor_type;location;lat;lon;timestamp;P1;durP1;ratioP1;P2;durP2;ratioP2
11488;SDS011;5801;50.804;12.638;2023-06-22T00:02:12;18.90;;;8.27;;
11488;SDS011;5801;50.804;12.638;2023-06-22T00:04:38;22.88;;;8.13;;
11488;SDS011;5801;50.804;12.638;2023-06-22T00:07:04;26.80;;;8.85;;
11488;SDS011;5801;50.804;12.638;2023-06-22T00:09:31;19.58;;;8.02;;
11488;SDS011;5801;50.804;12.638;2023-06-22T00:11:57;28.42;;;7.78;;
11488;SDS011;5801;50.804;12.638;2023-06-22T00:14:23;14.15;;;7.80;;
11488;SDS011;5801;50.804;12.638;2023-06-22T00:16:49;23.80;;;7.93;;
11488;SDS011;5801;50.804;12.638;2023-06-22T00:19:19;34.92;;;8.60;;
11488;SDS011;5801;50.804;12.638;2023-06-22T00:21:46;23.35;;;8.70;;
11488;SDS011;5801;50.804;12.638;2023-06-22T00:24:12;24.85;;;7.75;;
11488;SDS011;5801;50.804;12.638;2023-06-22T00:26:39;26.58;;;8.48;;
11488;SDS011;5801;50.804;12.638;2023-06-22T00:29:04;16.83;;;8.20;;
11488;SDS011;5801;50.804;12.638;2023-06-22T00:31:30;15.48;;;6.88;;
11488;SDS011;5801;50.804;12.638;2023-06-22T00:33:56;23.20;;;8.43;;
11488;SDS011;5801;50.804;12.638;2023-06-22T00:36:22;22.15;;;7.53;;
11488;SDS011;5801;50.804;12.638;2023-06-22T00:38:49;17.20;;;7.70;;
11488;SDS011;5801;50.804;12.638;2023-06-22T00:41:16;19.35;;;8.43;;
11488;SDS011;5801;50.804;12.638;2023-06-22T00:43:42;24.20;;;8.63;;
11488;SDS011;5801;50.804;12.638;2023-06-22T00:46:08;15.00;;;7.82;;
11488;SDS011;5801;50.804;12.638;2023-06-22T00:48:34;31.83;;;9.00;;
11488;SDS011;5801;50.804;12.638;2023-06-22T00:51:01;13.98;;;7.45;;
11488;SDS011;5801;50.804;12.638;2023-06-22T00:53:27;16.00;;;7.63;;
11488;SDS011;5801;50.804;12.638;2023-06-22T00:55:53;13.70;;;7.10;;
11488;SDS011;5801;50.804;12.638;2023-06-22T00:58:20;12.07;;;7.25;;
11488;SDS011;5801;50.804;12.638;2023-06-22T01:00:51;15.23;;;7.43;;
11488;SDS011;5801;50.804;12.638;2023-06-22T01:03:17;28.30;;;8.13;;
11488;SDS011;5801;50.804;12.638;2023-06-22T01:05:43;27.27;;;8.63;;
11488;SDS011;5801;50.804;12.638;2023-06-22T01:11:01;19.75;;;8.23;;
11488;SDS011;5801;50.804;12.638;2023-06-22T01:16:00;11.57;;;7.68;;
11488;SDS011;5801;50.804;12.638;2023-06-22T01:18:28;19.90;;;7.35;;
11488;SDS011;5801;50.804;12.638;2023-06-22T01:20:55;34.30;;;9.00;;
11488;SDS011;5801;50.804;12.638;2023-06-22T01:23:26;23.30;;;7.95;;
11488;SDS011;5801;50.804;12.638;2023-06-22T01:25:59;20.10;;;8.63;;
11488;SDS011;5801;50.804;12.638;2023-06-22T01:30:57;12.07;;;7.38;;
11488;SDS011;5801;50.804;12.638;2023-06-22T01:33:31;19.85;;;8.05;;
11488;SDS011;5801;50.804;12.638;2023-06-22T01:35:58;23.15;;;7.13;;
11488;SDS011;5801;50.804;12.638;2023-06-22T01:38:25;19.77;;;8.35;;
11488;SDS011;5801;50.804;12.638;2023-06-22T01:40:51;24.25;;;8.35;;
11488;SDS011;5801;50.804;12.638;2023-06-22T01:43:18;31.50;;;9.18;;
11488;SDS011;5801;50.804;12.638;2023-06-22T01:45:44;19.75;;;8.15;;
11488;SDS011;5801;50.804;12.638;2023-06-22T01:48:10;17.35;;;7.88;;
11488;SDS011;5801;50.804;12.638;2023-06-22T01:50:36;20.63;;;7.93;;
11488;SDS011;5801;50.804;12.638;2023-06-22T01:53:02;24.30;;;7.78;;
11488;SDS011;5801;50.804;12.638;2023-06-22T01:55:28;30.05;;;8.40;;
11488;SDS011;5801;50.804;12.638;2023-06-22T01:57:54;14.55;;;7.07;;
11488;SDS011;5801;50.804;12.638;2023-06-22T02:00:21;26.90;;;7.80;;
11488;SDS011;5801;50.804;12.638;2023-06-22T02:05:20;18.25;;;7.00;;
11488;SDS011;5801;50.804;12.638;2023-06-22T02:08:02;21.15;;;8.23;;
11488;SDS011;5801;50.804;12.638;2023-06-22T02:10:30;25.50;;;8.98;;
11488;SDS011;5801;50.804;12.638;2023-06-22T02:12:57;16.88;;;7.95;;
11488;SDS011;5801;50.804;12.638;2023-06-22T02:15:23;31.25;;;7.90;;
11488;SDS011;5801;50.804;12.638;2023-06-22T02:17:49;29.35;;;7.57;;
11488;SDS011;5801;50.804;12.638;2023-06-22T02:20:15;28.42;;;8.10;;
11488;SDS011;5801;50.804;12.638;2023-06-22T02:22:41;26.88;;;7.60;;
11488;SDS011;5801;50.804;12.638;2023-06-22T02:25:07;27.75;;;7.85;;
11488;SDS011;5801;50.804;12.638;2023-06-22T02:27:33;23.48;;;7.45;;
11488;SDS011;5801;50.804;12.638;2023-06-22T02:29:59;23.42;;;7.90;;
11488;SDS011;5801;50.804;12.638;2023-06-22T02:32:25;15.68;;;7.57;;
11488;SDS011;5801;50.804;12.638;2023-06-22T02:34:52;32.00;;;8.85;;
11488;SDS011;5801;50.804;12.638;2023-06-22T02:37:18;20.90;;;8.02;;
11488;SDS011;5801;50.804;12.638;2023-06-22T02:39:44;18.55;;;8.18;;
11488;SDS011;5801;50.804;12.638;2023-06-22T02:42:10;19.15;;;8.27;;
11488;SDS011;5801;50.804;12.638;2023-06-22T02:44:36;18.95;;;7.30;;
11488;SDS011;5801;50.804;12.638;2023-06-22T02:47:02;18.13;;;6.97;;
11488;SDS011;5801;50.804;12.638;2023-06-22T02:49:28;24.42;;;7.60;;
11488;SDS011;5801;50.804;12.638;2023-06-22T02:51:54;12.90;;;6.85;;
11488;SDS011;5801;50.804;12.638;2023-06-22T02:54:20;14.70;;;7.50;;
11488;SDS011;5801;50.804;12.638;2023-06-22T02:56:46;18.58;;;7.40;;
11488;SDS011;5801;50.804;12.638;2023-06-22T02:59:13;18.55;;;8.27;;
11488;SDS011;5801;50.804;12.638;2023-06-22T03:01:39;15.75;;;6.85;;
11488;SDS011;5801;50.804;12.638;2023-06-22T03:04:08;19.67;;;7.53;;
11488;SDS011;5801;50.804;12.638;2023-06-22T03:06:34;18.60;;;7.07;;
11488;SDS011;5801;50.804;12.638;2023-06-22T03:09:01;17.58;;;7.57;;
11488;SDS011;5801;50.804;12.638;2023-06-22T03:11:28;22.45;;;7.57;;
11488;SDS011;5801;50.804;12.638;2023-06-22T03:13:54;24.75;;;7.53;;
11488;SDS011;5801;50.804;12.638;2023-06-22T03:16:20;23.80;;;7.93;;
11488;SDS011;5801;50.804;12.638;2023-06-22T03:18:46;22.50;;;7.60;;
11488;SDS011;5801;50.804;12.638;2023-06-22T03:21:12;21.02;;;7.43;;
11488;SDS011;5801;50.804;12.638;2023-06-22T03:23:40;20.02;;;7.55;;
11488;SDS011;5801;50.804;12.638;2023-06-22T03:26:06;30.05;;;7.82;;
11488;SDS011;5801;50.804;12.638;2023-06-22T03:28:32;16.10;;;7.72;;
11488;SDS011;5801;50.804;12.638;2023-06-22T03:30:57;14.20;;;8.75;;
11488;SDS011;5801;50.804;12.638;2023-06-22T03:33:24;14.38;;;8.02;;
11488;SDS011;5801;50.804;12.638;2023-06-22T03:35:50;15.98;;;8.35;;
11488;SDS011;5801;50.804;12.638;2023-06-22T03:38:16;21.25;;;9.10;;
11488;SDS011;5801;50.804;12.638;2023-06-22T03:40:42;21.77;;;7.55;;
11488;SDS011;5801;50.804;12.638;2023-06-22T03:43:08;16.00;;;7.13;;
11488;SDS011;5801;50.804;12.638;2023-06-22T03:45:34;16.35;;;7.80;;
11488;SDS011;5801;50.804;12.638;2023-06-22T03:48:00;22.67;;;8.27;;
11488;SDS011;5801;50.804;12.638;2023-06-22T03:50:26;20.05;;;7.90;;
11488;SDS011;5801;50.804;12.638;2023-06-22T03:52:52;11.63;;;7.88;;
11488;SDS011;5801;50.804;12.638;2023-06-22T03:55:21;14.40;;;7.63;;
11488;SDS011;5801;50.804;12.638;2023-06-22T03:57:47;9.90;;;7.03;;
11488;SDS011;5801;50.804;12.638;2023-06-22T04:00:13;24.75;;;8.43;;
11488;SDS011;5801;50.804;12.638;2023-06-22T04:02:40;15.63;;;7.30;;
11488;SDS011;5801;50.804;12.638;2023-06-22T04:05:08;17.85;;;7.35;;
11488;SDS011;5801;50.804;12.638;2023-06-22T04:07:34;12.00;;;7.15;;
11488;SDS011;5801;50.804;12.638;2023-06-22T04:10:02;21.63;;;8.57;;
11488;SDS011;5801;50.804;12.638;2023-06-22T04:12:28;16.55;;;8.55;;
11488;SDS011;5801;50.804;12.638;2023-06-22T04:14:53;15.93;;;7.05;;
11488;SDS011;5801;50.804;12.638;2023-06-22T04:17:19;15.20;;;7.70;;
11488;SDS011;5801;50.804;12.638;2023-06-22T04:19:45;16.30;;;8.15;;
11488;SDS011;5801;50.804;12.638;2023-06-22T04:22:11;16.45;;;7.85;;
11488;SDS011;5801;50.804;12.638;2023-06-22T04:24:37;18.48;;;7.57;;
11488;SDS011;5801;50.804;12.638;2023-06-22T04:27:03;13.57;;;7.35;;
11488;SDS011;5801;50.804;12.638;2023-06-22T04:29:29;19.52;;;8.93;;
11488;SDS011;5801;50.804;12.638;2023-06-22T04:31:56;14.65;;;8.65;;
11488;SDS011;5801;50.804;12.638;2023-06-22T04:34:23;20.98;;;8.32;;
11488;SDS011;5801;50.804;12.638;2023-06-22T04:36:53;35.55;;;10.10;;
11488;SDS011;5801;50.804;12.638;2023-06-22T04:39:19;14.50;;;9.45;;
11488;SDS011;5801;50.804;12.638;2023-06-22T04:41:45;21.02;;;8.88;;
11488;SDS011;5801;50.804;12.638;2023-06-22T04:44:11;21.77;;;9.48;;
11488;SDS011;5801;50.804;12.638;2023-06-22T04:46:37;18.55;;;9.27;;
11488;SDS011;5801;50.804;12.638;2023-06-22T04:49:07;13.75;;;8.55;;
11488;SDS011;5801;50.804;12.638;2023-06-22T04:51:36;11.38;;;8.05;;
11488;SDS011;5801;50.804;12.638;2023-06-22T04:54:02;14.27;;;8.27;;
11488;SDS011;5801;50.804;12.638;2023-06-22T04:56:30;13.05;;;8.30;;
11488;SDS011;5801;50.804;12.638;2023-06-22T04:58:56;16.75;;;7.65;;
11488;SDS011;5801;50.804;12.638;2023-06-22T05:01:22;14.25;;;8.18;;
11488;SDS011;5801;50.804;12.638;2023-06-22T05:03:49;14.23;;;7.57;;
11488;SDS011;5801;50.804;12.638;2023-06-22T05:06:15;11.93;;;7.80;;
11488;SDS011;5801;50.804;12.638;2023-06-22T05:08:41;11.20;;;7.50;;
11488;SDS011;5801;50.804;12.638;2023-06-22T05:11:07;17.13;;;6.95;;
11488;SDS011;5801;50.804;12.638;2023-06-22T05:13:33;9.68;;;7.00;;
11488;SDS011;5801;50.804;12.638;2023-06-22T05:15:59;11.85;;;7.07;;
11488;SDS011;5801;50.804;12.638;2023-06-22T05:18:28;10.32;;;7.78;;
11488;SDS011;5801;50.804;12.638;2023-06-22T05:20:54;13.80;;;7.50;;
11488;SDS011;5801;50.804;12.638;2023-06-22T05:23:20;13.18;;;7.88;;
11488;SDS011;5801;50.804;12.638;2023-06-22T05:25:46;15.32;;;7.90;;
11488;SDS011;5801;50.804;12.638;2023-06-22T05:28:12;9.20;;;6.18;;
11488;SDS011;5801;50.804;12.638;2023-06-22T05:30:38;12.05;;;6.50;;
11488;SDS011;5801;50.804;12.638;2023-06-22T05:33:04;10.80;;;6.03;;
11488;SDS011;5801;50.804;12.638;2023-06-22T05:35:30;7.28;;;5.70;;
11488;SDS011;5801;50.804;12.638;2023-06-22T05:37:56;10.82;;;5.55;;
11488;SDS011;5801;50.804;12.638;2023-06-22T05:40:22;9.52;;;5.28;;
11488;SDS011;5801;50.804;12.638;2023-06-22T05:42:48;9.45;;;5.97;;
11488;SDS011;5801;50.804;12.638;2023-06-22T05:45:14;5.90;;;5.18;;
11488;SDS011;5801;50.804;12.638;2023-06-22T05:47:40;10.95;;;5.28;;
11488;SDS011;5801;50.804;12.638;2023-06-22T05:50:06;10.93;;;5.15;;
11488;SDS011;5801;50.804;12.638;2023-06-22T05:52:33;7.07;;;4.63;;
11488;SDS011;5801;50.804;12.638;2023-06-22T05:54:59;6.97;;;5.25;;
11488;SDS011;5801;50.804;12.638;2023-06-22T05:57:25;12.07;;;4.93;;
11488;SDS011;5801;50.804;12.638;2023-06-22T05:59:51;8.70;;;5.00;;
11488;SDS011;5801;50.804;12.638;2023-06-22T06:02:18;7.57;;;4.97;;
11488;SDS011;5801;50.804;12.638;2023-06-22T06:04:44;8.43;;;4.50;;
11488;SDS011;5801;50.804;12.638;2023-06-22T06:07:10;5.85;;;5.25;;
11488;SDS011;5801;50.804;12.638;2023-06-22T06:09:36;7.10;;;4.90;;
11488;SDS011;5801;50.804;12.638;2023-06-22T06:12:02;5.85;;;4.70;;
11488;SDS011;5801;50.804;12.638;2023-06-22T06:14:28;7.22;;;5.45;;
11488;SDS011;5801;50.804;12.638;2023-06-22T06:16:54;6.80;;;4.97;;
11488;SDS011;5801;50.804;12.638;2023-06-22T06:19:20;8.48;;;5.65;;
11488;SDS011;5801;50.804;12.638;2023-06-22T06:21:46;7.45;;;5.13;;
11488;SDS011;5801;50.804;12.638;2023-06-22T06:24:12;8.02;;;5.35;;
11488;SDS011;5801;50.804;12.638;2023-06-22T06:26:38;8.60;;;5.38;;
11488;SDS011;5801;50.804;12.638;2023-06-22T06:29:04;7.35;;;5.15;;
11488;SDS011;5801;50.804;12.638;2023-06-22T06:31:30;12.63;;;5.28;;
11488;SDS011;5801;50.804;12.638;2023-06-22T06:33:56;7.03;;;5.18;;
11488;SDS011;5801;50.804;12.638;2023-06-22T06:36:22;6.85;;;5.22;;
11488;SDS011;5801;50.804;12.638;2023-06-22T06:38:48;8.82;;;5.22;;
11488;SDS011;5801;50.804;12.638;2023-06-22T06:41:15;6.78;;;5.05;;
11488;SDS011;5801;50.804;12.638;2023-06-22T06:43:41;12.35;;;5.55;;
11488;SDS011;5801;50.804;12.638;2023-06-22T06:46:10;7.32;;;4.85;;
11488;SDS011;5801;50.804;12.638;2023-06-22T06:48:36;7.20;;;5.35;;
11488;SDS011;5801;50.804;12.638;2023-06-22T06:51:02;5.95;;;5.05;;
11488;SDS011;5801;50.804;12.638;2023-06-22T06:53:28;6.45;;;5.10;;
11488;SDS011;5801;50.804;12.638;2023-06-22T06:55:54;10.20;;;5.30;;
11488;SDS011;5801;50.804;12.638;2023-06-22T06:58:20;8.68;;;5.35;;
11488;SDS011;5801;50.804;12.638;2023-06-22T07:00:47;15.68;;;5.45;;
11488;SDS011;5801;50.804;12.638;2023-06-22T07:03:13;7.93;;;5.15;;
11488;SDS011;5801;50.804;12.638;2023-06-22T07:05:39;7.13;;;5.93;;
11488;SDS011;5801;50.804;12.638;2023-06-22T07:08:05;7.38;;;5.15;;
11488;SDS011;5801;50.804;12.638;2023-06-22T07:10:31;8.73;;;4.95;;
11488;SDS011;5801;50.804;12.638;2023-06-22T07:12:57;7.53;;;5.20;;
11488;SDS011;5801;50.804;12.638;2023-06-22T07:15:23;7.35;;;5.47;;
11488;SDS011;5801;50.804;12.638;2023-06-22T07:17:49;6.10;;;5.13;;
11488;SDS011;5801;50.804;12.638;2023-06-22T07:20:15;6.40;;;4.95;;
11488;SDS011;5801;50.804;12.638;2023-06-22T07:22:42;6.20;;;5.20;;
11488;SDS011;5801;50.804;12.638;2023-06-22T07:25:09;6.13;;;5.28;;
11488;SDS011;5801;50.804;12.638;2023-06-22T07:27:39;5.47;;;4.97;;
11488;SDS011;5801;50.804;12.638;2023-06-22T07:30:08;6.55;;;5.47;;
11488;SDS011;5801;50.804;12.638;2023-06-22T07:32:34;5.47;;;4.97;;
11488;SDS011;5801;50.804;12.638;2023-06-22T07:35:00;6.55;;;5.55;;
11488;SDS011;5801;50.804;12.638;2023-06-22T07:37:27;10.95;;;5.70;;
11488;SDS011;5801;50.804;12.638;2023-06-22T07:39:53;7.32;;;5.82;;
11488;SDS011;5801;50.804;12.638;2023-06-22T07:42:23;8.05;;;5.50;;
11488;SDS011;5801;50.804;12.638;2023-06-22T07:44:49;10.00;;;5.68;;
11488;SDS011;5801;50.804;12.638;2023-06-22T07:47:16;7.22;;;5.47;;
11488;SDS011;5801;50.804;12.638;2023-06-22T07:49:44;7.03;;;6.10;;
11488;SDS011;5801;50.804;12.638;2023-06-22T07:52:10;7.40;;;6.25;;
11488;SDS011;5801;50.804;12.638;2023-06-22T07:54:36;6.45;;;5.40;;
11488;SDS011;5801;50.804;12.638;2023-06-22T07:57:02;5.80;;;5.00;;
11488;SDS011;5801;50.804;12.638;2023-06-22T07:59:28;7.75;;;5.40;;
11488;SDS011;5801;50.804;12.638;2023-06-22T08:01:54;9.88;;;5.65;;
11488;SDS011;5801;50.804;12.638;2023-06-22T08:04:20;13.50;;;6.20;;
11488;SDS011;5801;50.804;12.638;2023-06-22T08:06:46;7.55;;;5.75;;
11488;SDS011;5801;50.804;12.638;2023-06-22T08:09:14;8.55;;;5.93;;
11488;SDS011;5801;50.804;12.638;2023-06-22T08:11:40;5.97;;;5.38;;
11488;SDS011;5801;50.804;12.638;2023-06-22T08:14:06;6.85;;;5.38;;
11488;SDS011;5801;50.804;12.638;2023-06-22T08:16:31;6.35;;;5.47;;
11488;SDS011;5801;50.804;12.638;2023-06-22T08:18:57;10.93;;;5.60;;
11488;SDS011;5801;50.804;12.638;2023-06-22T08:21:23;9.82;;;5.60;;
11488;SDS011;5801;50.804;12.638;2023-06-22T08:23:49;8.73;;;5.95;;
11488;SDS011;5801;50.804;12.638;2023-06-22T08:26:15;7.88;;;5.75;;
11488;SDS011;5801;50.804;12.638;2023-06-22T08:28:41;6.53;;;5.78;;
11488;SDS011;5801;50.804;12.638;2023-06-22T08:31:07;7.72;;;5.65;;
11488;SDS011;5801;50.804;12.638;2023-06-22T08:33:33;7.18;;;5.70;;
11488;SDS011;5801;50.804;12.638;2023-06-22T08:35:59;8.30;;;5.78;;
11488;SDS011;5801;50.804;12.638;2023-06-22T08:38:26;6.63;;;5.63;;
11488;SDS011;5801;50.804;12.638;2023-06-22T08:40:52;9.93;;;5.65;;
11488;SDS011;5801;50.804;12.638;2023-06-22T08:43:18;5.93;;;5.28;;
11488;SDS011;5801;50.804;12.638;2023-06-22T08:45:43;6.57;;;5.60;;
11488;SDS011;5801;50.804;12.638;2023-06-22T08:48:10;10.95;;;6.00;;
11488;SDS011;5801;50.804;12.638;2023-06-22T08:50:36;6.32;;;5.35;;
11488;SDS011;5801;50.804;12.638;2023-06-22T08:53:02;7.15;;;5.40;;
11488;SDS011;5801;50.804;12.638;2023-06-22T08:55:28;6.80;;;5.70;;
11488;SDS011;5801;50.804;12.638;2023-06-22T08:57:54;6.70;;;5.47;;
11488;SDS011;5801;50.804;12.638;2023-06-22T09:00:20;7.70;;;5.85;;
11488;SDS011;5801;50.804;12.638;2023-06-22T09:02:46;7.55;;;5.03;;
11488;SDS011;5801;50.804;12.638;2023-06-22T09:05:12;6.15;;;5.32;;
11488;SDS011;5801;50.804;12.638;2023-06-22T09:07:38;6.35;;;5.07;;
11488;SDS011;5801;50.804;12.638;2023-06-22T09:10:05;5.90;;;5.30;;
11488;SDS011;5801;50.804;12.638;2023-06-22T09:12:31;13.73;;;5.10;;
11488;SDS011;5801;50.804;12.638;2023-06-22T09:14:57;5.88;;;5.28;;
11488;SDS011;5801;50.804;12.638;2023-06-22T09:17:25;7.32;;;4.43;;
11488;SDS011;5801;50.804;12.638;2023-06-22T09:19:51;5.53;;;4.65;;
11488;SDS011;5801;50.804;12.638;2023-06-22T09:22:17;8.82;;;5.20;;
11488;SDS011;5801;50.804;12.638;2023-06-22T09:24:42;10.52;;;5.32;;
11488;SDS011;5801;50.804;12.638;2023-06-22T09:27:08;6.63;;;4.93;;
11488;SDS011;5801;50.804;12.638;2023-06-22T09:29:34;5.57;;;5.05;;
11488;SDS011;5801;50.804;12.638;2023-06-22T09:32:00;6.00;;;4.45;;
11488;SDS011;5801;50.804;12.638;2023-06-22T09:34:26;7.72;;;5.13;;
11488;SDS011;5801;50.804;12.638;2023-06-22T09:36:52;7.45;;;5.07;;
11488;SDS011;5801;50.804;12.638;2023-06-22T09:39:18;6.68;;;4.90;;
11488;SDS011;5801;50.804;12.638;2023-06-22T09:41:44;6.32;;;4.88;;
11488;SDS011;5801;50.804;12.638;2023-06-22T09:44:10;7.00;;;5.18;;
11488;SDS011;5801;50.804;12.638;2023-06-22T09:46:36;6.45;;;5.35;;
11488;SDS011;5801;50.804;12.638;2023-06-22T09:49:02;6.63;;;4.90;;
11488;SDS011;5801;50.804;12.638;2023-06-22T09:51:28;5.80;;;4.97;;
11488;SDS011;5801;50.804;12.638;2023-06-22T09:53:54;9.20;;;5.55;;
11488;SDS011;5801;50.804;12.638;2023-06-22T09:56:20;6.00;;;4.85;;
11488;SDS011;5801;50.804;12.638;2023-06-22T09:58:46;5.93;;;5.15;;
11488;SDS011;5801;50.804;12.638;2023-06-22T10:01:12;7.30;;;5.18;;
11488;SDS011;5801;50.804;12.638;2023-06-22T10:03:41;6.32;;;5.15;;
11488;SDS011;5801;50.804;12.638;2023-06-22T10:06:07;6.20;;;5.57;;
11488;SDS011;5801;50.804;12.638;2023-06-22T10:08:33;9.07;;;6.00;;
11488;SDS011;5801;50.804;12.638;2023-06-22T10:10:59;9.02;;;5.63;;
11488;SDS011;5801;50.804;12.638;2023-06-22T10:13:25;9.35;;;5.60;;
11488;SDS011;5801;50.804;12.638;2023-06-22T10:15:50;10.65;;;4.80;;
11488;SDS011;5801;50.804;12.638;2023-06-22T10:18:20;8.55;;;5.82;;
11488;SDS011;5801;50.804;12.638;2023-06-22T10:20:47;6.35;;;5.32;;
11488;SDS011;5801;50.804;12.638;2023-06-22T10:23:13;6.00;;;5.32;;
11488;SDS011;5801;50.804;12.638;2023-06-22T10:25:39;6.47;;;5.20;;
11488;SDS011;5801;50.804;12.638;2023-06-22T10:28:05;5.97;;;5.38;;
11488;SDS011;5801;50.804;12.638;2023-06-22T10:30:32;6.60;;;5.70;;
11488;SDS011;5801;50.804;12.638;2023-06-22T10:32:57;6.30;;;5.32;;
11488;SDS011;5801;50.804;12.638;2023-06-22T10:35:23;6.45;;;5.35;;
11488;SDS011;5801;50.804;12.638;2023-06-22T10:37:48;11.25;;;5.72;;
11488;SDS011;5801;50.804;12.638;2023-06-22T10:40:16;8.38;;;5.72;;
11488;SDS011;5801;50.804;12.638;2023-06-22T10:42:43;6.80;;;5.35;;
11488;SDS011;5801;50.804;12.638;2023-06-22T10:45:09;6.95;;;4.93;;
11488;SDS011;5801;50.804;12.638;2023-06-22T10:47:35;7.13;;;5.30;;
11488;SDS011;5801;50.804;12.638;2023-06-22T10:50:01;8.88;;;5.93;;
11488;SDS011;5801;50.804;12.638;2023-06-22T10:52:27;6.10;;;5.25;;
11488;SDS011;5801;50.804;12.638;2023-06-22T10:54:53;5.90;;;5.30;;
11488;SDS011;5801;50.804;12.638;2023-06-22T10:57:18;6.68;;;5.10;;
11488;SDS011;5801;50.804;12.638;2023-06-22T10:59:44;5.32;;;4.65;;
11488;SDS011;5801;50.804;12.638;2023-06-22T11:02:09;8.35;;;5.78;;
11488;SDS011;5801;50.804;12.638;2023-06-22T11:04:35;6.88;;;5.45;;
11488;SDS011;5801;50.804;12.638;2023-06-22T11:07:00;6.03;;;5.43;;
11488;SDS011;5801;50.804;12.638;2023-06-22T11:09:26;5.80;;;5.18;;
11488;SDS011;5801;50.804;12.638;2023-06-22T11:11:52;14.73;;;5.50;;
11488;SDS011;5801;50.804;12.638;2023-06-22T11:14:18;5.18;;;4.63;;
11488;SDS011;5801;50.804;12.638;2023-06-22T11:16:44;8.27;;;6.00;;
11488;SDS011;5801;50.804;12.638;2023-06-22T11:19:11;6.57;;;5.57;;
11488;SDS011;5801;50.804;12.638;2023-06-22T11:21:37;8.77;;;5.63;;
11488;SDS011;5801;50.804;12.638;2023-06-22T11:24:03;8.55;;;5.50;;
11488;SDS011;5801;50.804;12.638;2023-06-22T11:26:30;6.78;;;5.43;;
11488;SDS011;5801;50.804;12.638;2023-06-22T11:28:59;5.78;;;4.60;;
11488;SDS011;5801;50.804;12.638;2023-06-22T11:31:25;8.73;;;5.72;;
11488;SDS011;5801;50.804;12.638;2023-06-22T11:33:51;5.60;;;5.00;;
11488;SDS011;5801;50.804;12.638;2023-06-22T11:36:17;5.88;;;5.05;;
11488;SDS011;5801;50.804;12.638;2023-06-22T11:38:43;5.88;;;5.30;;
11488;SDS011;5801;50.804;12.638;2023-06-22T11:41:09;5.63;;;5.13;;
11488;SDS011;5801;50.804;12.638;2023-06-22T11:43:35;8.68;;;5.20;;
11488;SDS011;5801;50.804;12.638;2023-06-22T11:46:02;7.82;;;5.57;;
11488;SDS011;5801;50.804;12.638;2023-06-22T11:48:28;5.43;;;4.80;;
11488;SDS011;5801;50.804;12.638;2023-06-22T11:50:54;7.07;;;5.60;;
11488;SDS011;5801;50.804;12.638;2023-06-22T11:53:24;9.05;;;5.45;;
11488;SDS011;5801;50.804;12.638;2023-06-22T11:55:51;6.93;;;5.25;;
11488;SDS011;5801;50.804;12.638;2023-06-22T11:58:18;7.03;;;5.35;;
11488;SDS011;5801;50.804;12.638;2023-06-22T12:00:44;9.05;;;5.15;;
11488;SDS011;5801;50.804;12.638;2023-06-22T12:03:10;6.72;;;5.03;;
11488;SDS011;5801;50.804;12.638;2023-06-22T12:05:37;8.30;;;5.25;;
11488;SDS011;5801;50.804;12.638;2023-06-22T12:08:03;7.53;;;5.15;;
11488;SDS011;5801;50.804;12.638;2023-06-22T12:10:28;8.15;;;5.18;;
11488;SDS011;5801;50.804;12.638;2023-06-22T12:12:54;7.57;;;5.10;;
11488;SDS011;5801;50.804;12.638;2023-06-22T12:15:19;7.53;;;5.10;;
11488;SDS011;5801;50.804;12.638;2023-06-22T12:17:45;5.78;;;5.13;;
11488;SDS011;5801;50.804;12.638;2023-06-22T12:20:13;7.82;;;5.45;;
11488;SDS011;5801;50.804;12.638;2023-06-22T12:22:38;9.23;;;5.05;;
11488;SDS011;5801;50.804;12.638;2023-06-22T12:25:04;8.07;;;5.50;;
11488;SDS011;5801;50.804;12.638;2023-06-22T12:27:30;6.78;;;5.30;;
11488;SDS011;5801;50.804;12.638;2023-06-22T12:29:56;8.60;;;5.38;;
11488;SDS011;5801;50.804;12.638;2023-06-22T12:32:21;7.38;;;5.00;;
11488;SDS011;5801;50.804;12.638;2023-06-22T12:34:47;5.68;;;5.07;;
11488;SDS011;5801;50.804;12.638;2023-06-22T12:37:12;6.57;;;5.47;;
11488;SDS011;5801;50.804;12.638;2023-06-22T12:39:40;6.57;;;5.47;;
11488;SDS011;5801;50.804;12.638;2023-06-22T12:42:06;12.52;;;5.38;;
11488;SDS011;5801;50.804;12.638;2023-06-22T12:44:33;8.00;;;5.38;;
11488;SDS011;5801;50.804;12.638;2023-06-22T12:46:59;10.77;;;6.13;;
11488;SDS011;5801;50.804;12.638;2023-06-22T12:49:24;8.50;;;5.60;;
11488;SDS011;5801;50.804;12.638;2023-06-22T12:51:50;7.40;;;5.43;;
11488;SDS011;5801;50.804;12.638;2023-06-22T12:54:15;6.63;;;5.28;;
11488;SDS011;5801;50.804;12.638;2023-06-22T12:56:41;12.20;;;5.70;;
11488;SDS011;5801;50.804;12.638;2023-06-22T12:59:08;9.65;;;5.28;;
11488;SDS011;5801;50.804;12.638;2023-06-22T13:01:34;8.30;;;5.72;;
11488;SDS011;5801;50.804;12.638;2023-06-22T13:03:59;7.57;;;5.43;;
11488;SDS011;5801;50.804;12.638;2023-06-22T13:06:25;9.73;;;5.55;;
11488;SDS011;5801;50.804;12.638;2023-06-22T13:08:51;7.00;;;5.43;;
11488;SDS011;5801;50.804;12.638;2023-06-22T13:11:16;7.85;;;5.63;;
11488;SDS011;5801;50.804;12.638;2023-06-22T13:13:43;8.63;;;6.22;;
11488;SDS011;5801;50.804;12.638;2023-06-22T13:16:09;9.38;;;6.07;;
11488;SDS011;5801;50.804;12.638;2023-06-22T13:18:34;9.93;;;5.85;;
11488;SDS011;5801;50.804;12.638;2023-06-22T13:21:01;9.23;;;6.40;;
11488;SDS011;5801;50.804;12.638;2023-06-22T13:23:29;9.98;;;6.18;;
11488;SDS011;5801;50.804;12.638;2023-06-22T13:25:55;7.97;;;5.90;;
11488;SDS011;5801;50.804;12.638;2023-06-22T13:28:21;8.45;;;6.38;;
11488;SDS011;5801;50.804;12.638;2023-06-22T13:30:47;8.07;;;5.75;;
11488;SDS011;5801;50.804;12.638;2023-06-22T13:33:15;8.77;;;6.80;;
11488;SDS011;5801;50.804;12.638;2023-06-22T13:35:41;8.20;;;6.50;;
11488;SDS011;5801;50.804;12.638;2023-06-22T13:38:07;12.95;;;6.30;;
11488;SDS011;5801;50.804;12.638;2023-06-22T13:40:34;12.27;;;6.95;;
11488;SDS011;5801;50.804;12.638;2023-06-22T13:42:59;8.73;;;6.53;;
11488;SDS011;5801;50.804;12.638;2023-06-22T13:45:25;9.73;;;6.35;;
11488;SDS011;5801;50.804;12.638;2023-06-22T13:47:51;7.18;;;6.40;;
11488;SDS011;5801;50.804;12.638;2023-06-22T13:50:16;11.93;;;6.60;;
11488;SDS011;5801;50.804;12.638;2023-06-22T13:52:42;8.45;;;6.05;;
11488;SDS011;5801;50.804;12.638;2023-06-22T13:55:08;9.90;;;7.32;;
11488;SDS011;5801;50.804;12.638;2023-06-22T13:57:34;10.10;;;6.28;;
11488;SDS011;5801;50.804;12.638;2023-06-22T14:00:00;12.38;;;6.97;;
11488;SDS011;5801;50.804;12.638;2023-06-22T14:02:27;7.97;;;6.32;;
11488;SDS011;5801;50.804;12.638;2023-06-22T14:04:53;8.85;;;6.53;;
11488;SDS011;5801;50.804;12.638;2023-06-22T14:07:18;12.65;;;6.82;;
11488;SDS011;5801;50.804;12.638;2023-06-22T14:09:47;10.00;;;6.38;;
11488;SDS011;5801;50.804;12.638;2023-06-22T14:12:13;9.32;;;7.05;;
11488;SDS011;5801;50.804;12.638;2023-06-22T14:14:38;11.30;;;6.55;;
11488;SDS011;5801;50.804;12.638;2023-06-22T14:17:04;10.32;;;6.70;;
11488;SDS011;5801;50.804;12.638;2023-06-22T14:19:30;8.55;;;6.22;;
11488;SDS011;5801;50.804;12.638;2023-06-22T14:21:56;8.63;;;6.35;;
11488;SDS011;5801;50.804;12.638;2023-06-22T14:24:22;7.15;;;5.97;;
11488;SDS011;5801;50.804;12.638;2023-06-22T14:26:48;10.70;;;6.88;;
11488;SDS011;5801;50.804;12.638;2023-06-22T14:29:14;7.75;;;6.20;;
11488;SDS011;5801;50.804;12.638;2023-06-22T14:31:39;6.75;;;6.07;;
11488;SDS011;5801;50.804;12.638;2023-06-22T14:34:05;7.75;;;6.53;;
11488;SDS011;5801;50.804;12.638;2023-06-22T14:36:31;10.68;;;5.93;;
11488;SDS011;5801;50.804;12.638;2023-06-22T14:38:56;10.38;;;7.15;;
11488;SDS011;5801;50.804;12.638;2023-06-22T14:41:22;8.65;;;6.55;;
11488;SDS011;5801;50.804;12.638;2023-06-22T14:43:48;10.32;;;5.95;;
11488;SDS011;5801;50.804;12.638;2023-06-22T14:46:15;9.88;;;5.70;;